Time;durP1;ratioP1;P1;durP2;ratioP2;P2;SDS_P1;SDS_P2;PMS_P1;PMS_P2;Temp;Humidity;BMP_temperature;BMP_pressure;BME280_temperature;BME280_humidity;BME280_pressure;Samples;Min_cycle;Max_cycle;Signal;HPM_P1;HPM_P2
2022/03/21 00:00:54;;;;;;;16.63;11.98;;;6.20;89.40;;;;;;5021958;28;20301;-73
2022/03/21 00:03:25;;;;;;;13.60;11.02;;;6.20;89.80;;;;;;5022865;28;20198;-73
2022/03/21 00:05:53;;;;;;;14.90;11.35;;;6.20;89.80;;;;;;5023566;28;20206;-73
2022/03/21 00:08:22;;;;;;;13.38;10.63;;;6.10;89.60;;;;;;5023509;28;20211;-73
2022/03/21 00:10:53;;;;;;;14.43;10.52;;;6.10;89.80;;;;;;5023000;28;20833;-74
2022/03/21 00:13:21;;;;;;;15.10;11.65;;;6.10;89.70;;;;;;5021675;28;20890;-73
2022/03/21 00:15:52;;;;;;;16.10;11.30;;;6.00;90.00;;;;;;5023548;28;20297;-73
2022/03/21 00:18:21;;;;;;;15.82;11.73;;;6.00;90.00;;;;;;5022034;28;20841;-73
2022/03/21 00:20:52;;;;;;;12.98;10.77;;;5.90;89.90;;;;;;5021792;28;20812;-73
2022/03/21 00:23:20;;;;;;;14.85;11.10;;;5.90;90.00;;;;;;5021634;28;20671;-73
2022/03/21 00:25:48;;;;;;;14.60;10.75;;;5.90;90.00;;;;;;5021607;28;20267;-73
2022/03/21 00:28:18;;;;;;;12.52;10.88;;;5.90;90.00;;;;;;5021882;28;20238;-73
2022/03/21 00:30:46;;;;;;;13.35;10.32;;;5.90;90.10;;;;;;5022398;28;20230;-72
2022/03/21 00:33:15;;;;;;;12.90;10.50;;;5.80;90.00;;;;;;5020657;28;20379;-73
2022/03/21 00:35:43;;;;;;;14.43;11.70;;;5.80;90.00;;;;;;5021580;28;20302;-73
2022/03/21 00:38:15;;;;;;;11.35;10.00;;;5.80;90.10;;;;;;5021428;28;20230;-72
2022/03/21 00:40:45;;;;;;;14.60;10.85;;;5.80;90.20;;;;;;5020772;28;20214;-72
2022/03/21 00:43:14;;;;;;;13.35;9.93;;;5.80;90.20;;;;;;5020086;28;20202;-72
2022/03/21 00:45:46;;;;;;;15.52;10.40;;;5.70;90.20;;;;;;5020841;28;20697;-73
2022/03/21 00:48:14;;;;;;;15.50;10.85;;;5.80;90.20;;;;;;5021390;28;20192;-74
2022/03/21 00:50:42;;;;;;;15.02;11.40;;;5.70;90.30;;;;;;5027611;28;20388;-73
2022/03/21 00:53:10;;;;;;;16.95;10.88;;;5.70;90.20;;;;;;5042829;28;20225;-72
2022/03/21 00:55:38;;;;;;;17.77;11.43;;;5.70;90.20;;;;;;5037322;28;20194;-73
2022/03/21 00:58:07;;;;;;;12.43;9.27;;;5.60;90.20;;;;;;5037815;28;20198;-73
2022/03/21 01:00:35;;;;;;;11.65;9.32;;;5.60;90.20;;;;;;5047383;28;20202;-73
2022/03/21 01:03:05;;;;;;;13.95;11.10;;;5.60;90.20;;;;;;5044568;28;20202;-73
2022/03/21 01:05:33;;;;;;;16.40;9.95;;;5.60;90.30;;;;;;5023660;28;20206;-74
2022/03/21 01:08:02;;;;;;;14.23;10.27;;;5.70;90.30;;;;;;5020719;28;20210;-73
2022/03/21 01:10:32;;;;;;;15.45;10.98;;;5.60;90.30;;;;;;5021002;28;20358;-74
2022/03/21 01:13:00;;;;;;;13.10;10.20;;;5.60;90.30;;;;;;5020447;28;20225;-73
2022/03/21 01:15:29;;;;;;;14.02;11.07;;;5.50;90.30;;;;;;5020491;28;20202;-72
2022/03/21 01:17:58;;;;;;;12.38;10.40;;;5.60;90.30;;;;;;5020598;28;20202;-72
2022/03/21 01:20:28;;;;;;;16.48;10.95;;;5.60;90.30;;;;;;5020343;28;20232;-72
2022/03/21 01:22:56;;;;;;;13.23;11.27;;;5.50;90.30;;;;;;5019860;28;20962;-72
2022/03/21 01:25:24;;;;;;;12.73;9.57;;;5.50;90.50;;;;;;5019842;28;20289;-72
2022/03/21 01:27:51;;;;;;;11.55;10.07;;;5.60;90.50;;;;;;5019882;28;20210;-72
2022/03/21 01:30:19;;;;;;;18.85;10.27;;;5.50;90.40;;;;;;5019796;28;20709;-72
2022/03/21 01:32:48;;;;;;;10.77;9.68;;;5.50;90.60;;;;;;5019730;28;20218;-72
2022/03/21 01:35:17;;;;;;;13.05;10.10;;;5.50;90.50;;;;;;5024122;28;20198;-72
2022/03/21 01:37:47;;;;;;;15.15;10.98;;;5.40;90.60;;;;;;5019707;28;20202;-72
2022/03/21 01:40:16;;;;;;;14.30;11.00;;;5.30;90.70;;;;;;5019637;28;20242;-72
2022/03/21 01:42:46;;;;;;;11.45;10.05;;;5.30;90.70;;;;;;5019468;28;20194;-72
2022/03/21 01:45:15;;;;;;;13.55;9.82;;;5.30;90.70;;;;;;5019294;28;20218;-72
2022/03/21 01:47:43;;;;;;;11.98;9.85;;;5.30;90.80;;;;;;5020072;28;20201;-74
2022/03/21 01:50:12;;;;;;;14.38;11.18;;;5.30;90.90;;;;;;5019546;28;20222;-73
2022/03/21 01:52:43;;;;;;;14.77;11.60;;;5.30;90.90;;;;;;5019384;28;20294;-71
2022/03/21 01:57:59;;;;;;;15.82;11.50;;;5.20;91.00;;;;;;5019478;28;20224;-73
2022/03/21 02:00:27;;;;;;;13.10;10.27;;;5.20;91.00;;;;;;5019574;28;20218;-73
2022/03/21 02:02:55;;;;;;;15.77;10.35;;;5.10;91.00;;;;;;5019719;28;20195;-72
2022/03/21 02:05:23;;;;;;;16.90;12.27;;;5.10;91.20;;;;;;5018917;28;20685;-73
2022/03/21 02:07:52;;;;;;;15.90;11.68;;;5.00;91.30;;;;;;5019428;28;20206;-73
2022/03/21 02:10:22;;;;;;;14.60;11.75;;;4.90;91.20;;;;;;5018231;28;20305;-72
2022/03/21 02:12:49;;;;;;;14.65;10.73;;;4.90;91.40;;;;;;5019717;28;20250;-72
2022/03/21 02:15:18;;;;;;;11.90;9.95;;;5.00;91.50;;;;;;5019063;28;20202;-73
2022/03/21 02:17:47;;;;;;;13.23;9.32;;;4.90;91.50;;;;;;5018989;28;20198;-71
2022/03/21 02:20:18;;;;;;;15.95;12.13;;;4.80;91.50;;;;;;5019132;28;20218;-73
2022/03/21 02:22:54;;;;;;;12.98;11.15;;;4.80;91.60;;;;;;5019382;28;20297;-73
2022/03/21 02:25:30;;;;;;;16.67;11.05;;;4.80;91.70;;;;;;5019337;28;20205;-73
2022/03/21 02:28:01;;;;;;;15.50;11.20;;;4.70;91.80;;;;;;5019327;28;20755;-71
2022/03/21 02:30:35;;;;;;;15.07;11.48;;;4.70;91.80;;;;;;5018792;28;20264;-73
2022/03/21 02:33:03;;;;;;;12.20;10.77;;;4.70;91.80;;;;;;5018863;28;20209;-71
2022/03/21 02:35:32;;;;;;;15.32;11.25;;;4.70;91.90;;;;;;5018978;28;20207;-72
2022/03/21 02:38:01;;;;;;;14.73;10.95;;;4.70;91.90;;;;;;5019222;28;20904;-72
2022/03/21 02:40:30;;;;;;;13.50;10.25;;;4.70;92.00;;;;;;5018771;28;20230;-73
2022/03/21 02:42:58;;;;;;;11.63;9.50;;;4.70;92.00;;;;;;5020621;28;20276;-73
2022/03/21 02:45:26;;;;;;;14.85;10.48;;;4.70;91.90;;;;;;5020366;28;20505;-71
2022/03/21 02:47:54;;;;;;;14.52;11.13;;;4.70;91.90;;;;;;5019698;28;20229;-74
2022/03/21 02:50:31;;;;;;;12.95;10.68;;;4.60;91.90;;;;;;5019451;28;20222;-73
2022/03/21 02:53:01;;;;;;;14.13;10.60;;;4.60;92.00;;;;;;5020405;28;20200;-76
2022/03/21 02:55:30;;;;;;;16.55;10.77;;;4.60;92.00;;;;;;5019529;28;20202;-74
2022/03/21 02:57:57;;;;;;;16.30;11.45;;;4.50;92.00;;;;;;5019063;28;20203;-72
2022/03/21 03:00:26;;;;;;;16.50;11.40;;;4.50;92.00;;;;;;5018470;28;20219;-72
2022/03/21 03:02:54;;;;;;;12.75;10.10;;;4.50;92.10;;;;;;5019120;28;20294;-72
2022/03/21 03:05:22;;;;;;;14.82;10.45;;;4.50;92.00;;;;;;5020851;28;20208;-73
2022/03/21 03:07:50;;;;;;;13.60;10.57;;;4.50;92.10;;;;;;5023757;28;20198;-72
2022/03/21 03:10:17;;;;;;;14.00;10.57;;;4.40;92.10;;;;;;5023690;28;20236;-72
2022/03/21 03:12:47;;;;;;;12.68;9.73;;;4.40;92.10;;;;;;5024109;28;20434;-72
2022/03/21 03:15:14;;;;;;;14.00;10.93;;;4.40;92.10;;;;;;5022774;28;20298;-69
2022/03/21 03:17:42;;;;;;;13.68;10.60;;;4.40;92.10;;;;;;5022913;28;20919;-70
2022/03/21 03:20:11;;;;;;;16.98;11.23;;;4.40;92.30;;;;;;5024127;28;20949;-67
2022/03/21 03:22:40;;;;;;;16.17;11.80;;;4.30;92.20;;;;;;5022721;28;20221;-68
2022/03/21 03:25:09;;;;;;;14.32;10.68;;;4.30;92.20;;;;;;5025732;28;20206;-70
2022/03/21 03:27:37;;;;;;;15.25;11.02;;;4.30;92.20;;;;;;5038872;28;20311;-71
2022/03/21 03:30:07;;;;;;;14.00;11.18;;;4.30;92.30;;;;;;5038594;28;20265;-71
2022/03/21 03:32:36;;;;;;;14.45;10.30;;;4.30;92.20;;;;;;5022353;28;20764;-69
2022/03/21 03:35:04;;;;;;;12.98;10.40;;;4.30;92.20;;;;;;5026380;28;20227;-73
2022/03/21 03:37:32;;;;;;;14.55;11.80;;;4.30;92.20;;;;;;5041650;28;20202;-74
2022/03/21 03:40:00;;;;;;;12.45;9.77;;;4.30;92.30;;;;;;5042266;28;20230;-74
2022/03/21 03:42:27;;;;;;;12.95;11.07;;;4.30;92.20;;;;;;5042321;28;20201;-73
2022/03/21 03:44:55;;;;;;;16.10;10.23;;;4.30;92.40;;;;;;5041737;28;20814;-73
2022/03/21 03:47:24;;;;;;;16.58;10.90;;;4.30;92.30;;;;;;5040690;28;20593;-73
2022/03/21 03:49:52;;;;;;;14.35;10.70;;;4.20;92.40;;;;;;5040841;28;20214;-73
2022/03/21 03:52:20;;;;;;;14.68;10.88;;;4.20;92.30;;;;;;5041679;28;20221;-73
2022/03/21 03:54:48;;;;;;;13.75;10.85;;;4.20;92.40;;;;;;5041614;28;20205;-73
2022/03/21 03:57:16;;;;;;;12.75;11.10;;;4.20;92.50;;;;;;5041617;28;20194;-73
2022/03/21 03:59:44;;;;;;;12.88;10.40;;;4.20;92.40;;;;;;5041283;28;20316;-73
2022/03/21 04:02:11;;;;;;;13.30;10.70;;;4.20;92.40;;;;;;5041493;28;20227;-73
2022/03/21 04:04:40;;;;;;;14.18;9.90;;;4.20;92.40;;;;;;5041057;28;20216;-74
2022/03/21 04:07:08;;;;;;;13.68;10.38;;;4.20;92.30;;;;;;5045089;28;20205;-74
2022/03/21 04:09:35;;;;;;;13.50;9.98;;;4.20;92.40;;;;;;5042801;28;21490;-73
2022/03/21 04:12:04;;;;;;;14.02;10.05;;;4.20;92.50;;;;;;5041236;28;20277;-74
2022/03/21 04:14:32;;;;;;;15.05;10.35;;;4.10;92.50;;;;;;5040877;28;20212;-73
2022/03/21 04:17:00;;;;;;;16.85;11.57;;;4.10;92.60;;;;;;5040656;28;20676;-73
2022/03/21 04:19:28;;;;;;;14.23;10.32;;;4.10;92.70;;;;;;5040824;28;20197;-74
2022/03/21 04:21:57;;;;;;;11.60;10.07;;;4.10;92.70;;;;;;5040772;28;20200;-74
2022/03/21 04:24:25;;;;;;;13.88;10.85;;;4.10;92.70;;;;;;5040806;28;20193;-71
2022/03/21 04:26:52;;;;;;;14.18;10.20;;;4.00;92.80;;;;;;5040408;28;20204;-72
2022/03/21 04:29:20;;;;;;;14.10;10.75;;;4.00;92.90;;;;;;5041108;28;20211;-74
2022/03/21 04:31:48;;;;;;;13.13;10.25;;;4.00;92.90;;;;;;5040682;28;20221;-74
2022/03/21 04:34:16;;;;;;;16.42;10.98;;;3.90;92.90;;;;;;5040358;28;20700;-74
2022/03/21 04:36:44;;;;;;;14.38;10.73;;;3.90;92.90;;;;;;5040846;28;20197;-72
2022/03/21 04:39:13;;;;;;;14.95;11.02;;;3.80;93.00;;;;;;5040851;28;20229;-73
2022/03/21 04:41:41;;;;;;;15.35;10.90;;;3.80;93.10;;;;;;5040314;28;20209;-73
2022/03/21 04:44:09;;;;;;;16.98;11.65;;;3.80;93.10;;;;;;5041335;28;20197;-73
2022/03/21 04:46:36;;;;;;;16.73;10.65;;;3.80;93.10;;;;;;5040155;28;20202;-73
2022/03/21 04:49:04;;;;;;;15.60;10.93;;;3.70;93.10;;;;;;5040198;28;20221;-75
2022/03/21 04:51:32;;;;;;;13.65;10.25;;;3.70;93.20;;;;;;5040932;28;20249;-71
2022/03/21 04:54:00;;;;;;;15.15;10.60;;;3.60;93.20;;;;;;5040599;28;20198;-73
2022/03/21 04:56:29;;;;;;;16.88;11.25;;;3.60;93.30;;;;;;5040773;28;20208;-74
2022/03/21 04:58:57;;;;;;;18.02;12.00;;;3.50;93.20;;;;;;5040662;28;20202;-73
2022/03/21 05:01:25;;;;;;;17.45;11.27;;;3.60;93.30;;;;;;5040635;28;20229;-73
2022/03/21 05:03:53;;;;;;;16.33;10.48;;;3.60;93.30;;;;;;5039581;28;20363;-72
2022/03/21 05:06:21;;;;;;;16.83;11.27;;;3.60;93.30;;;;;;5032386;28;20214;-70
2022/03/21 05:08:49;;;;;;;18.25;11.18;;;3.50;93.30;;;;;;5024692;28;20210;-73
2022/03/21 05:11:17;;;;;;;15.20;11.75;;;3.50;93.40;;;;;;5020519;28;20227;-72
2022/03/21 05:13:46;;;;;;;16.52;11.40;;;3.60;93.50;;;;;;5019294;28;20269;-71
2022/03/21 05:16:15;;;;;;;16.42;11.27;;;3.50;93.40;;;;;;5021856;28;20268;-73
2022/03/21 05:18:43;;;;;;;13.95;11.13;;;3.50;93.50;;;;;;5037540;28;20213;-74
2022/03/21 05:21:11;;;;;;;15.05;11.38;;;3.60;93.50;;;;;;5025500;28;20256;-73
2022/03/21 05:31:59;;;;;;;15.20;10.65;;;3.70;93.50;;;;;;5032262;28;20684;-72
2022/03/21 05:37:12;;;;;;;18.58;12.00;;;3.70;93.50;;;;;;5030500;28;20208;-72
2022/03/21 05:40:31;;;;;;;12.60;9.90;;;3.70;93.30;;;;;;5030959;28;20213;-73
2022/03/21 05:42:28;;;;;;;14.35;11.20;;;3.80;93.30;;;;;;5020923;28;20745;-73
2022/03/21 05:44:59;;;;;;;15.82;10.80;;;3.80;93.30;;;;;;5035397;28;20210;-71
2022/03/21 05:47:30;;;;;;;11.65;10.35;;;3.80;93.30;;;;;;5039757;28;20389;-70
2022/03/21 05:49:57;;;;;;;17.88;11.93;;;3.90;93.30;;;;;;5020118;28;20376;-71
2022/03/21 05:52:25;;;;;;;15.73;12.05;;;3.80;93.30;;;;;;5020000;28;20218;-73
2022/03/21 05:54:54;;;;;;;18.67;11.65;;;3.80;93.30;;;;;;5031586;28;20201;-73
2022/03/21 05:57:22;;;;;;;15.43;11.65;;;3.80;93.40;;;;;;5020552;28;20238;-73
2022/03/21 06:02:37;;;;;;;15.02;11.05;;;3.80;93.40;;;;;;5020063;28;20902;-73
2022/03/21 06:05:06;;;;;;;17.60;13.00;;;3.80;93.40;;;;;;5023236;28;20213;-74
2022/03/21 06:07:34;;;;;;;20.40;10.00;;;3.80;93.50;;;;;;5039300;28;20813;-73
2022/03/21 06:10:02;;;;;;;15.57;10.60;;;3.80;93.80;;;;;;5039726;28;20230;-73
2022/03/21 06:12:31;;;;;;;16.02;10.85;;;3.90;94.20;;;;;;5039276;28;20746;-73
2022/03/21 06:14:59;;;;;;;14.65;10.45;;;3.90;93.70;;;;;;5037557;28;20209;-73
2022/03/21 06:17:27;;;;;;;16.30;11.15;;;3.90;93.70;;;;;;5019997;28;20284;-73
2022/03/21 06:19:57;;;;;;;12.07;10.63;;;3.90;93.70;;;;;;5031514;28;20257;-73
2022/03/21 06:22:25;;;;;;;16.50;11.07;;;3.90;93.90;;;;;;5023711;28;20801;-73
2022/03/21 06:24:53;;;;;;;14.57;11.25;;;4.00;93.60;;;;;;5020855;28;20666;-73
2022/03/21 06:27:21;;;;;;;15.65;11.25;;;4.10;93.30;;;;;;5035229;28;20219;-76
2022/03/21 06:29:48;;;;;;;17.98;11.77;;;4.10;93.30;;;;;;5038656;28;20219;-73
2022/03/21 06:32:16;;;;;;;14.75;10.65;;;4.10;93.50;;;;;;5039356;28;20202;-73
2022/03/21 06:34:44;;;;;;;17.40;11.70;;;4.10;93.50;;;;;;5043000;28;20578;-73
2022/03/21 06:37:14;;;;;;;16.77;11.65;;;4.10;93.50;;;;;;5034643;28;20208;-72
2022/03/21 06:39:42;;;;;;;16.65;11.43;;;4.20;93.40;;;;;;5045356;28;20245;-73
2022/03/21 06:42:11;;;;;;;15.13;11.57;;;4.20;93.60;;;;;;5038004;28;20210;-74
2022/03/21 06:44:39;;;;;;;15.10;11.63;;;4.30;93.50;;;;;;5030194;28;20714;-73
2022/03/21 06:47:07;;;;;;;14.98;11.85;;;4.20;93.50;;;;;;5025891;28;20201;-73
2022/03/21 06:49:35;;;;;;;14.93;11.27;;;4.30;93.50;;;;;;5037012;28;20209;-74
2022/03/21 06:52:06;;;;;;;17.60;11.02;;;4.30;93.40;;;;;;5033295;28;20236;-74
2022/03/21 06:54:35;;;;;;;13.60;10.65;;;4.30;93.50;;;;;;5030110;28;20339;-73
2022/03/21 06:57:04;;;;;;;15.23;11.73;;;4.40;93.40;;;;;;5033880;28;20206;-72
2022/03/21 06:59:32;;;;;;;15.73;11.90;;;4.40;93.40;;;;;;5033802;28;20794;-73
2022/03/21 07:02:00;;;;;;;17.77;13.40;;;4.50;93.40;;;;;;5027105;28;20199;-74
2022/03/21 07:04:28;;;;;;;15.68;12.00;;;4.60;93.50;;;;;;5022964;28;20212;-71
2022/03/21 07:06:57;;;;;;;16.80;11.55;;;4.70;93.70;;;;;;5029426;28;20723;-72
2022/03/21 07:09:25;;;;;;;15.20;11.65;;;4.80;93.70;;;;;;5033211;28;20619;-73
2022/03/21 07:11:54;;;;;;;15.52;11.40;;;4.80;93.50;;;;;;5031201;28;20225;-72
2022/03/21 07:14:22;;;;;;;14.13;10.95;;;4.90;93.20;;;;;;5033593;28;20299;-73
2022/03/21 07:16:51;;;;;;;13.73;11.48;;;5.10;93.20;;;;;;5032119;28;20258;-72
2022/03/21 07:19:19;;;;;;;14.48;11.23;;;5.10;93.10;;;;;;5030120;28;20352;-71
2022/03/21 07:21:47;;;;;;;14.07;11.32;;;5.20;92.90;;;;;;5027576;28;20306;-71
2022/03/21 07:24:15;;;;;;;15.18;11.60;;;5.30;92.80;;;;;;5031929;28;20786;-72
2022/03/21 07:26:42;;;;;;;16.85;11.68;;;5.40;92.80;;;;;;5022342;28;20268;-71
2022/03/21 07:29:12;;;;;;;15.15;11.95;;;5.50;92.90;;;;;;5023918;28;20198;-71
2022/03/21 07:31:40;;;;;;;16.23;12.07;;;5.50;92.90;;;;;;5031261;28;20380;-70
2022/03/21 07:34:08;;;;;;;16.85;11.48;;;5.60;92.70;;;;;;5039044;28;20222;-71
2022/03/21 07:36:36;;;;;;;15.82;12.18;;;5.70;92.60;;;;;;5041969;28;20206;-71
2022/03/21 07:39:05;;;;;;;15.25;10.68;;;5.70;92.60;;;;;;5044590;28;20201;-70
2022/03/21 07:41:35;;;;;;;16.17;11.02;;;5.80;92.70;;;;;;5041431;28;20222;-71
2022/03/21 07:44:06;;;;;;;16.55;11.55;;;5.90;92.60;;;;;;5041236;28;20228;-70
2022/03/21 07:49:21;;;;;;;14.07;11.68;;;5.90;92.60;;;;;;5027619;28;20179;-72
2022/03/21 07:51:49;;;;;;;15.68;12.35;;;6.00;92.30;;;;;;5043732;28;20212;-67
2022/03/21 07:54:17;;;;;;;14.40;12.65;;;6.00;92.10;;;;;;5043823;28;20909;-69
2022/03/21 07:56:44;;;;;;;15.55;12.13;;;6.00;92.30;;;;;;5042672;28;20209;-68
2022/03/21 07:59:12;;;;;;;13.38;10.73;;;6.00;92.30;;;;;;5030680;28;20862;-67
2022/03/21 08:01:46;;;;;;;13.05;11.23;;;6.00;92.40;;;;;;5023342;28;20214;-69
2022/03/21 08:04:14;;;;;;;14.75;11.43;;;6.20;92.30;;;;;;5022763;28;20209;-68
2022/03/21 08:06:43;;;;;;;15.02;10.70;;;6.20;92.10;;;;;;5022410;28;20354;-68
2022/03/21 08:09:10;;;;;;;14.30;12.80;;;6.30;92.00;;;;;;5025069;28;20288;-69
2022/03/21 08:11:38;;;;;;;14.38;11.88;;;6.40;92.00;;;;;;5025935;28;20226;-67
2022/03/21 08:14:07;;;;;;;15.90;12.65;;;6.60;91.90;;;;;;5041749;28;20845;-69
2022/03/21 08:16:35;;;;;;;14.23;11.57;;;6.60;91.70;;;;;;5028688;28;20305;-65
2022/03/21 08:19:04;;;;;;;17.48;14.00;;;6.60;91.70;;;;;;5023581;28;20237;-68
2022/03/21 08:21:32;;;;;;;16.25;11.35;;;6.60;91.80;;;;;;5022319;28;20625;-69
2022/03/21 08:24:00;;;;;;;20.85;12.85;;;6.80;91.80;;;;;;5037228;28;20231;-69
2022/03/21 08:26:31;;;;;;;13.43;11.48;;;6.90;91.90;;;;;;5040915;28;20205;-69
2022/03/21 08:28:59;;;;;;;19.95;14.98;;;6.80;91.80;;;;;;5026043;28;20290;-67
2022/03/21 08:31:27;;;;;;;16.55;13.15;;;6.90;91.70;;;;;;5026408;28;20705;-69
2022/03/21 08:33:55;;;;;;;15.05;11.52;;;6.90;91.80;;;;;;5020427;28;20226;-68
2022/03/21 08:36:24;;;;;;;15.63;11.80;;;7.00;91.80;;;;;;5020504;28;20345;-68
2022/03/21 08:38:52;;;;;;;14.73;10.75;;;7.10;91.70;;;;;;5022492;28;20199;-68
2022/03/21 08:41:21;;;;;;;17.17;12.10;;;7.10;91.90;;;;;;5033537;28;20475;-67
2022/03/21 08:43:50;;;;;;;13.45;11.05;;;7.20;91.60;;;;;;5021411;28;20210;-68
2022/03/21 08:46:17;;;;;;;16.85;11.82;;;7.30;91.70;;;;;;5031814;28;20467;-68
2022/03/21 08:51:53;;;;;;;14.18;12.07;;;7.40;91.70;;;;;;5031535;28;20260;-68
2022/03/21 08:54:21;;;;;;;14.77;12.07;;;7.50;91.90;;;;;;5035895;28;20390;-66
2022/03/21 08:56:48;;;;;;;15.10;11.82;;;7.60;92.00;;;;;;5028972;28;20194;-66
2022/03/21 08:59:16;;;;;;;13.68;11.48;;;7.70;91.70;;;;;;5029111;28;20202;-67
2022/03/21 09:01:44;;;;;;;13.63;11.57;;;7.80;91.70;;;;;;5033826;28;20212;-67
2022/03/21 09:04:12;;;;;;;14.55;12.20;;;7.80;92.00;;;;;;5029816;28;20213;-67
2022/03/21 09:06:41;;;;;;;16.38;12.80;;;7.90;91.60;;;;;;5029873;28;20252;-67
2022/03/21 09:09:11;;;;;;;14.93;12.48;;;8.00;91.40;;;;;;5030060;28;20213;-67
2022/03/21 09:11:39;;;;;;;13.82;11.55;;;8.10;91.50;;;;;;5030318;28;20313;-68
2022/03/21 09:14:08;;;;;;;13.80;11.75;;;8.20;91.40;;;;;;5036350;28;20582;-67
2022/03/21 09:16:38;;;;;;;14.40;11.85;;;8.20;91.30;;;;;;5036217;28;20222;-66
2022/03/21 09:19:07;;;;;;;17.95;12.98;;;8.30;91.50;;;;;;5038283;28;20245;-69
2022/03/21 09:21:35;;;;;;;15.05;11.00;;;8.30;91.60;;;;;;5037710;28;20224;-67
2022/03/21 09:24:04;;;;;;;14.38;12.68;;;8.40;91.30;;;;;;5030342;28;20289;-67
2022/03/21 09:26:33;;;;;;;16.45;12.40;;;8.40;91.10;;;;;;5030659;28;20210;-66
2022/03/21 09:29:03;;;;;;;14.23;11.80;;;8.50;91.30;;;;;;5030786;28;20226;-68
2022/03/21 09:31:31;;;;;;;13.15;11.85;;;8.60;91.30;;;;;;5029731;28;20229;-66
2022/03/21 09:34:07;;;;;;;15.60;12.90;;;8.70;91.20;;;;;;5029577;28;20198;-65
2022/03/21 09:36:35;;;;;;;14.40;12.23;;;8.80;91.20;;;;;;5027587;28;20198;-67
2022/03/21 09:39:04;;;;;;;16.48;12.73;;;8.90;91.20;;;;;;5031479;28;20210;-67
2022/03/21 09:41:33;;;;;;;14.68;11.93;;;9.00;91.00;;;;;;5033803;28;20308;-67
2022/03/21 09:44:03;;;;;;;15.30;12.52;;;9.00;91.00;;;;;;5033615;28;20724;-67
2022/03/21 09:46:32;;;;;;;15.32;13.63;;;9.00;91.10;;;;;;5032150;28;20202;-67
2022/03/21 09:49:00;;;;;;;15.35;11.95;;;9.10;91.40;;;;;;5031684;28;20673;-67
2022/03/21 09:51:30;;;;;;;13.82;12.35;;;9.20;91.00;;;;;;5033167;28;20413;-67
2022/03/21 09:54:00;;;;;;;15.77;12.80;;;9.30;91.40;;;;;;5030878;28;20305;-67
2022/03/21 09:56:30;;;;;;;15.07;12.60;;;9.40;91.60;;;;;;5020555;28;20737;-67
2022/03/21 09:59:00;;;;;;;16.63;12.93;;;9.50;92.00;;;;;;5019742;28;20213;-67
2022/03/21 10:01:29;;;;;;;15.35;11.85;;;9.50;91.50;;;;;;5019457;28;20719;-67
2022/03/21 10:03:57;;;;;;;17.63;13.48;;;9.60;91.10;;;;;;5019781;28;20462;-67
2022/03/21 10:06:33;;;;;;;14.45;12.90;;;9.70;91.20;;;;;;5020640;28;20268;-66
2022/03/21 10:09:06;;;;;;;16.35;12.38;;;9.90;90.90;;;;;;5025666;28;20471;-67
2022/03/21 10:11:34;;;;;;;15.60;12.57;;;10.00;90.40;;;;;;5019341;28;20713;-68
2022/03/21 10:14:22;;;;;;;14.02;12.52;;;10.10;91.00;;;;;;5019448;28;20285;-67
2022/03/21 10:16:54;;;;;;;18.70;11.98;;;10.00;90.20;;;;;;5029845;28;20701;-67
2022/03/21 10:19:23;;;;;;;15.85;12.90;;;10.10;90.30;;;;;;5021324;28;20206;-66
2022/03/21 10:22:01;;;;;;;13.65;12.07;;;10.10;90.00;;;;;;5036075;28;20201;-68
2022/03/21 10:24:36;;;;;;;16.55;14.02;;;10.20;89.60;;;;;;5031958;28;20379;-67
2022/03/21 10:27:04;;;;;;;14.52;12.48;;;10.30;89.80;;;;;;5032811;28;20208;-67
2022/03/21 10:29:50;;;;;;;13.45;12.05;;;10.30;90.20;;;;;;5032594;28;20205;-67
2022/03/21 10:32:34;;;;;;;14.63;12.80;;;10.30;90.00;;;;;;5037797;28;20208;-66
2022/03/21 10:35:05;;;;;;;15.98;13.13;;;10.40;90.50;;;;;;5046623;28;20252;-66
2022/03/21 10:37:48;;;;;;;14.60;12.30;;;10.40;90.00;;;;;;5040184;28;20202;-70
2022/03/21 10:40:30;;;;;;;14.50;12.98;;;10.50;90.30;;;;;;5036794;28;20491;-68
2022/03/21 10:43:00;;;;;;;16.30;13.60;;;10.60;90.00;;;;;;5036596;28;20244;-67
2022/03/21 10:45:44;;;;;;;14.60;12.10;;;10.80;89.90;;;;;;5036592;28;20428;-67
2022/03/21 10:48:14;;;;;;;15.50;12.70;;;10.80;89.70;;;;;;5038637;28;20440;-67
2022/03/21 10:50:45;;;;;;;15.30;13.13;;;10.90;90.00;;;;;;5039746;28;20464;-67
2022/03/21 10:53:14;;;;;;;15.00;12.00;;;11.10;89.10;;;;;;5040092;28;20456;-69
2022/03/21 10:55:44;;;;;;;13.98;12.57;;;11.10;90.00;;;;;;5039384;28;20484;-68
2022/03/21 10:58:13;;;;;;;17.42;13.77;;;11.20;89.50;;;;;;5038760;28;20190;-71
2022/03/21 11:00:42;;;;;;;15.60;11.47;;;11.20;89.70;;;;;;5038120;28;20476;-67
2022/03/21 11:03:14;;;;;;;19.20;13.83;;;11.20;89.60;;;;;;5038155;28;20808;-69
2022/03/21 11:05:44;;;;;;;19.07;13.50;;;11.20;89.30;;;;;;5037981;28;20536;-67
2022/03/21 11:08:13;;;;;;;13.70;12.30;;;11.20;89.20;;;;;;5037152;28;20468;-67
2022/03/21 11:10:41;;;;;;;14.10;12.20;;;11.30;90.00;;;;;;5035641;28;20478;-67
2022/03/21 11:13:10;;;;;;;12.57;11.23;;;11.50;89.90;;;;;;5038514;28;20746;-68
2022/03/21 11:15:40;;;;;;;16.80;13.10;;;11.60;89.10;;;;;;5036980;28;20476;-69
2022/03/21 11:18:09;;;;;;;15.13;12.77;;;11.70;88.50;;;;;;5036299;28;20446;-68
2022/03/21 11:20:38;;;;;;;15.67;12.53;;;11.70;88.40;;;;;;5036417;28;20492;-69
2022/03/21 11:23:07;;;;;;;14.57;12.33;;;11.80;88.70;;;;;;5038834;28;20513;-69
2022/03/21 11:25:39;;;;;;;15.83;12.53;;;11.80;87.90;;;;;;5034747;28;20729;-69
2022/03/21 11:28:37;;;;;;;13.33;12.03;;;11.80;88.00;;;;;;5040809;28;20614;-67
2022/03/21 11:31:38;;;;;;;14.23;12.30;;;11.90;88.30;;;;;;5039268;28;20525;-68
2022/03/21 11:34:19;;;;;;;13.90;12.10;;;11.90;88.20;;;;;;5039931;28;20737;-68
2022/03/21 11:36:51;;;;;;;14.90;12.63;;;12.00;88.60;;;;;;5042617;28;20502;-68
2022/03/21 11:39:20;;;;;;;15.90;14.00;;;12.10;87.90;;;;;;5039044;28;20533;-68
2022/03/21 11:41:58;;;;;;;17.40;14.30;;;12.20;87.90;;;;;;5041363;28;20432;-69
2022/03/21 11:44:26;;;;;;;14.67;13.07;;;12.20;87.50;;;;;;5038037;28;20549;-66
2022/03/21 11:46:54;;;;;;;17.93;14.50;;;12.20;87.60;;;;;;5041379;28;20440;-69
2022/03/21 11:49:45;;;;;;;14.00;12.43;;;12.30;87.80;;;;;;5041275;28;20446;-67
2022/03/21 11:52:14;;;;;;;13.23;11.87;;;12.30;87.30;;;;;;5050815;28;20452;-69
2022/03/21 11:54:42;;;;;;;15.80;13.10;;;12.30;87.10;;;;;;5057770;28;20684;-67
2022/03/21 11:57:11;;;;;;;15.20;12.67;;;12.40;87.90;;;;;;5060733;28;20452;-67
2022/03/21 12:00:14;;;;;;;18.30;12.90;;;12.50;87.30;;;;;;5060210;28;20744;-66
2022/03/21 12:02:57;;;;;;;14.70;13.17;;;12.50;87.00;;;;;;5060846;28;20432;-67
2022/03/21 12:05:52;;;;;;;13.97;11.60;;;12.60;87.00;;;;;;5039650;28;20440;-68
2022/03/21 12:08:52;;;;;;;16.30;12.43;;;12.60;86.90;;;;;;5036101;28;20532;-68
2022/03/21 12:12:03;;;;;;;15.17;12.37;;;12.70;86.90;;;;;;5034830;28;20464;-67
2022/03/21 12:14:43;;;;;;;16.00;14.30;;;12.70;86.90;;;;;;5040351;28;20429;-67
2022/03/21 12:17:39;;;;;;;14.57;13.03;;;12.70;87.20;;;;;;5040456;28;20476;-70
2022/03/21 12:20:18;;;;;;;14.13;12.63;;;12.70;86.50;;;;;;5037523;28;21038;-67
2022/03/21 12:23:18;;;;;;;19.33;14.50;;;12.80;86.80;;;;;;5038982;28;20871;-67
2022/03/21 12:25:52;;;;;;;16.90;13.47;;;12.90;87.20;;;;;;5039248;28;20891;-67
2022/03/21 12:31:24;;;;;;;17.10;13.67;;;13.00;86.60;;;;;;5025641;28;20983;-68
2022/03/21 12:33:52;;;;;;;14.77;13.20;;;13.10;86.20;;;;;;5035792;28;20589;-68
2022/03/21 12:36:32;;;;;;;14.10;12.60;;;13.00;86.10;;;;;;5034632;28;20737;-69
2022/03/21 12:39:01;;;;;;;16.70;13.53;;;13.10;85.60;;;;;;5035949;28;20444;-68
2022/03/21 12:41:37;;;;;;;15.57;13.90;;;13.20;85.90;;;;;;5037235;28;20760;-69
2022/03/21 12:44:05;;;;;;;17.30;13.00;;;13.20;86.20;;;;;;5037386;28;20927;-68
2022/03/21 12:46:34;;;;;;;14.10;12.07;;;13.20;86.10;;;;;;5038355;28;20523;-67
2022/03/21 12:49:04;;;;;;;14.80;13.30;;;13.30;86.20;;;;;;5037390;28;20546;-68
2022/03/21 12:51:35;;;;;;;15.87;13.67;;;13.30;86.30;;;;;;5033776;28;20473;-69
2022/03/21 12:54:26;;;;;;;14.00;12.50;;;13.20;86.00;;;;;;5037331;28;20436;-67
2022/03/21 12:57:06;;;;;;;14.13;12.77;;;13.20;85.90;;;;;;5037687;28;20513;-66
2022/03/21 12:59:33;;;;;;;14.27;12.73;;;13.30;86.10;;;;;;5040699;28;20495;-69
2022/03/21 13:02:01;;;;;;;14.77;12.87;;;13.30;86.90;;;;;;5058038;28;20509;-67
2022/03/21 13:13:05;;;;;;;16.83;13.60;;;13.40;85.80;;;;;;5036733;28;20668;-66
2022/03/21 13:15:35;;;;;;;17.17;13.40;;;13.40;85.50;;;;;;5039350;28;20432;-67
2022/03/21 13:18:04;;;;;;;16.40;14.67;;;13.40;85.50;;;;;;5039806;28;20559;-69
2022/03/21 13:20:40;;;;;;;19.63;13.70;;;13.30;85.80;;;;;;5039004;28;20463;-68
2022/03/21 13:23:08;;;;;;;18.70;14.73;;;13.50;86.50;;;;;;5039146;28;20458;-68
2022/03/21 13:25:43;;;;;;;15.53;13.83;;;13.50;86.50;;;;;;5031540;28;20496;-69